Time;durP1;ratioP1;P1;durP2;ratioP2;P2;SDS_P1;SDS_P2;PMS_P1;PMS_P2;Temp;Humidity;BMP_temperature;BMP_pressure;BME280_temperature;BME280_humidity;BME280_pressure;Samples;Min_cycle;Max_cycle;Signal;HPM_P1;HPM_P2
2022/10/10 00:00:16;;;;;;;21.85;3.97;;;;;;;;;;6330954;22;20018;-61
2022/10/10 00:02:50;;;;;;;29.85;4.65;;;;;;;;;;6330259;22;20401;-61
2022/10/10 00:05:24;;;;;;;17.13;3.67;;;;;;;;;;6331940;22;20025;-51
2022/10/10 00:07:51;;;;;;;29.23;4.35;;;;;;;;;;6331183;22;20023;-59
2022/10/10 00:10:18;;;;;;;31.15;4.68;;;;;;;;;;6330781;22;20019;-60
2022/10/10 00:12:52;;;;;;;23.35;4.30;;;;;;;;;;6329940;22;20134;-59
2022/10/10 00:15:19;;;;;;;21.27;3.83;;;;;;;;;;6331597;22;20399;-59
2022/10/10 00:17:53;;;;;;;24.02;4.10;;;;;;;;;;6329738;22;20535;-59
2022/10/10 00:20:20;;;;;;;37.05;5.47;;;;;;;;;;6331473;22;20109;-59
2022/10/10 00:22:48;;;;;;;23.90;4.50;;;;;;;;;;6333977;22;20463;-59
2022/10/10 00:25:22;;;;;;;32.50;4.20;;;;;;;;;;6329732;22;20015;-60
2022/10/10 00:27:49;;;;;;;30.23;4.28;;;;;;;;;;6331975;22;20033;-50
2022/10/10 00:30:23;;;;;;;22.38;4.40;;;;;;;;;;6331902;22;20516;-49
2022/10/10 00:32:50;;;;;;;23.95;4.30;;;;;;;;;;6332864;22;20023;-48
2022/10/10 00:35:18;;;;;;;19.40;3.80;;;;;;;;;;6332293;22;20050;-50
2022/10/10 00:37:52;;;;;;;26.92;4.50;;;;;;;;;;6332903;22;20080;-48
2022/10/10 00:40:19;;;;;;;29.58;4.50;;;;;;;;;;6333651;22;20019;-51
2022/10/10 00:42:53;;;;;;;29.65;4.63;;;;;;;;;;6330527;22;20019;-50
2022/10/10 00:45:38;;;;;;;25.52;4.00;;;;;;;;;;6331833;22;20022;-50
2022/10/10 00:48:17;;;;;;;27.42;4.45;;;;;;;;;;6331573;22;20054;-62
2022/10/10 00:50:47;;;;;;;19.83;4.38;;;;;;;;;;6331698;22;20023;-63
2022/10/10 00:53:23;;;;;;;29.98;5.35;;;;;;;;;;6333787;22;20106;-63
2022/10/10 00:55:50;;;;;;;23.90;4.45;;;;;;;;;;6333381;22;20015;-63
2022/10/10 00:58:18;;;;;;;30.67;4.53;;;;;;;;;;6332999;22;20097;-63
2022/10/10 01:01:06;;;;;;;28.65;5.10;;;;;;;;;;6331351;22;20019;-62
2022/10/10 01:03:40;;;;;;;31.83;4.37;;;;;;;;;;6271205;22;20118;-61
2022/10/10 01:06:14;;;;;;;27.65;4.90;;;;;;;;;;6271201;22;20365;-50
2022/10/10 01:08:41;;;;;;;28.60;5.07;;;;;;;;;;6269768;22;20026;-49
2022/10/10 01:11:33;;;;;;;27.05;4.55;;;;;;;;;;6268799;22;20045;-49
2022/10/10 01:14:06;;;;;;;31.30;5.40;;;;;;;;;;6269261;22;20030;-51
2022/10/10 01:16:46;;;;;;;27.95;5.40;;;;;;;;;;6269896;22;20041;-51
2022/10/10 01:19:32;;;;;;;27.15;4.97;;;;;;;;;;6270516;22;20352;-51
2022/10/10 01:22:14;;;;;;;26.83;4.65;;;;;;;;;;6269359;22;20030;-49
2022/10/10 01:25:00;;;;;;;34.53;5.70;;;;;;;;;;6269470;22;20094;-61
2022/10/10 01:27:38;;;;;;;23.10;4.18;;;;;;;;;;6269507;22;20030;-50
2022/10/10 01:30:16;;;;;;;21.50;4.45;;;;;;;;;;6270990;22;20022;-52
2022/10/10 01:32:50;;;;;;;25.08;4.80;;;;;;;;;;6268978;22;20019;-52
2022/10/10 01:35:17;;;;;;;;;;;;;;;;;;6271620;22;20023;-53
2022/10/10 01:37:44;;;;;;;31.13;4.53;;;;;;;;;;6269934;22;20500;-51
2022/10/10 01:40:54;;;;;;;22.65;3.70;;;;;;;;;;6270889;22;20472;-49
2022/10/10 01:43:29;;;;;;;23.17;4.28;;;;;;;;;;6175674;23;20364;-59
2022/10/10 01:45:56;;;;;;;27.17;4.20;;;;;;;;;;6258464;22;20570;-59
2022/10/10 01:48:29;;;;;;;17.88;3.88;;;;;;;;;;6270627;22;20034;-59
2022/10/10 01:51:12;;;;;;;23.52;3.92;;;;;;;;;;6269069;22;20471;-59
2022/10/10 01:53:45;;;;;;;22.13;4.07;;;;;;;;;;6269391;22;20364;-60
2022/10/10 01:56:29;;;;;;;15.00;3.30;;;;;;;;;;6270288;22;20079;-59
2022/10/10 01:59:02;;;;;;;24.13;4.13;;;;;;;;;;6271892;22;20046;-59
2022/10/10 02:01:56;;;;;;;25.88;3.92;;;;;;;;;;6286204;22;20023;-60
2022/10/10 02:04:30;;;;;;;23.60;3.72;;;;;;;;;;6332949;22;20023;-59
2022/10/10 02:07:26;;;;;;;18.38;4.25;;;;;;;;;;6332212;22;20025;-60
2022/10/10 02:10:01;;;;;;;21.83;3.83;;;;;;;;;;6333141;22;20029;-59
2022/10/10 02:12:35;;;;;;;18.80;3.97;;;;;;;;;;6332961;22;20045;-60
2022/10/10 02:15:14;;;;;;;19.23;3.75;;;;;;;;;;6331958;22;20072;-60
2022/10/10 02:17:44;;;;;;;23.90;4.00;;;;;;;;;;6332016;22;20101;-59
2022/10/10 02:20:20;;;;;;;24.80;4.35;;;;;;;;;;6307364;22;20023;-61
2022/10/10 02:22:50;;;;;;;26.23;4.13;;;;;;;;;;6332136;22;20019;-52
2022/10/10 02:25:21;;;;;;;24.63;3.97;;;;;;;;;;6330301;22;20621;-50
2022/10/10 02:27:58;;;;;;;23.90;4.35;;;;;;;;;;6332275;22;20019;-50
2022/10/10 02:30:25;;;;;;;21.95;4.97;;;;;;;;;;6332912;22;20015;-52
2022/10/10 02:33:00;;;;;;;19.98;3.90;;;;;;;;;;6330915;22;20189;-53
2022/10/10 02:35:30;;;;;;;19.02;3.88;;;;;;;;;;6329926;22;20021;-52
2022/10/10 02:38:06;;;;;;;25.23;4.18;;;;;;;;;;6330671;22;20585;-61
2022/10/10 02:40:34;;;;;;;23.73;3.92;;;;;;;;;;6331141;22;20056;-51
2022/10/10 02:43:09;;;;;;;21.77;3.40;;;;;;;;;;6330358;22;20482;-62
2022/10/10 02:45:37;;;;;;;24.20;4.90;;;;;;;;;;6329541;22;20063;-62
2022/10/10 02:48:11;;;;;;;24.48;4.30;;;;;;;;;;6331196;22;20025;-63
2022/10/10 02:50:38;;;;;;;29.67;4.68;;;;;;;;;;6332126;22;20015;-63
2022/10/10 02:53:12;;;;;;;25.40;4.50;;;;;;;;;;6330984;22;20429;-61
2022/10/10 02:55:39;;;;;;;28.30;4.60;;;;;;;;;;6330223;22;20045;-63
2022/10/10 02:58:06;;;;;;;24.80;4.45;;;;;;;;;;6332227;22;20105;-62
2022/10/10 03:00:40;;;;;;;25.83;4.45;;;;;;;;;;6331426;22;20106;-59
2022/10/10 03:03:20;;;;;;;24.33;4.20;;;;;;;;;;6329301;22;20014;-59
2022/10/10 03:05:54;;;;;;;14.57;3.47;;;;;;;;;;6331785;22;20018;-60
2022/10/10 03:08:28;;;;;;;25.05;4.43;;;;;;;;;;6330726;22;20023;-59
2022/10/10 03:10:59;;;;;;;28.30;4.10;;;;;;;;;;6331419;22;20022;-60
2022/10/10 03:13:27;;;;;;;23.60;4.18;;;;;;;;;;6330795;22;20102;-60
2022/10/10 03:16:02;;;;;;;17.55;4.18;;;;;;;;;;6331799;22;20015;-59
2022/10/10 03:18:29;;;;;;;26.25;4.30;;;;;;;;;;6331619;22;20022;-62
2022/10/10 03:21:03;;;;;;;26.45;5.18;;;;;;;;;;6332731;22;20021;-61
2022/10/10 03:23:30;;;;;;;;;;;;;;;;;;6331256;22;20466;-61
2022/10/10 03:25:58;;;;;;;21.63;4.15;;;;;;;;;;6329661;22;19997;-61
2022/10/10 03:28:31;;;;;;;19.83;3.70;;;;;;;;;;6330709;22;20486;-61
2022/10/10 03:30:58;;;;;;;25.65;4.40;;;;;;;;;;6331181;22;20418;-62
2022/10/10 03:33:33;;;;;;;16.95;4.07;;;;;;;;;;6332429;22;20023;-61
2022/10/10 03:36:00;;;;;;;28.35;4.13;;;;;;;;;;6332445;22;20018;-59
2022/10/10 03:38:27;;;;;;;18.58;3.95;;;;;;;;;;6332397;22;20029;-61
2022/10/10 03:41:01;;;;;;;15.02;4.30;;;;;;;;;;6331411;22;20033;-61
2022/10/10 03:43:28;;;;;;;21.02;4.35;;;;;;;;;;6332188;22;20044;-61
2022/10/10 03:46:02;;;;;;;27.50;4.72;;;;;;;;;;6331820;22;20475;-61
2022/10/10 03:48:30;;;;;;;24.10;4.80;;;;;;;;;;6328548;22;20045;-61
2022/10/10 03:50:57;;;;;;;26.27;4.93;;;;;;;;;;6331786;22;20022;-61
2022/10/10 03:53:31;;;;;;;17.85;4.15;;;;;;;;;;6330816;22;20419;-61
2022/10/10 03:55:58;;;;;;;19.55;4.70;;;;;;;;;;6331740;22;20015;-62
2022/10/10 03:58:32;;;;;;;29.08;4.72;;;;;;;;;;6331727;22;20468;-51
2022/10/10 04:01:00;;;;;;;25.92;4.40;;;;;;;;;;6328980;22;20244;-51
2022/10/10 04:03:28;;;;;;;22.92;4.57;;;;;;;;;;6327703;22;20029;-50
2022/10/10 04:06:02;;;;;;;25.40;4.85;;;;;;;;;;6331580;22;20493;-48
2022/10/10 04:08:29;;;;;;;22.52;4.65;;;;;;;;;;6332129;22;20027;-52
2022/10/10 04:10:57;;;;;;;20.50;4.80;;;;;;;;;;6333054;22;20019;-51
2022/10/10 04:13:30;;;;;;;33.63;5.43;;;;;;;;;;6332039;22;20029;-59
2022/10/10 04:15:57;;;;;;;23.42;4.32;;;;;;;;;;6332762;22;20021;-62
2022/10/10 04:18:31;;;;;;;24.90;4.72;;;;;;;;;;6329369;22;20098;-62
2022/10/10 04:21:02;;;;;;;20.45;5.10;;;;;;;;;;6330432;22;20409;-61
2022/10/10 04:23:29;;;;;;;21.02;5.13;;;;;;;;;;6329802;22;20499;-61
2022/10/10 04:26:07;;;;;;;;;;;;;;;;;;6331443;22;20054;-61
2022/10/10 04:28:34;;;;;;;28.23;4.88;;;;;;;;;;6330552;22;19914;-61
2022/10/10 04:31:08;;;;;;;16.40;4.40;;;;;;;;;;6331218;22;20288;-61
2022/10/10 04:33:35;;;;;;;16.08;4.35;;;;;;;;;;6329175;22;20018;-60
2022/10/10 04:36:09;;;;;;;34.92;4.72;;;;;;;;;;6331406;22;20056;-61
2022/10/10 04:38:36;;;;;;;20.38;4.50;;;;;;;;;;6330309;22;20026;-62
2022/10/10 04:41:03;;;;;;;23.40;4.63;;;;;;;;;;6331039;22;20090;-62
2022/10/10 04:43:37;;;;;;;27.90;5.07;;;;;;;;;;6305304;22;20023;-61
2022/10/10 04:46:04;;;;;;;32.20;4.97;;;;;;;;;;6332264;22;20019;-62
2022/10/10 04:48:38;;;;;;;21.83;4.78;;;;;;;;;;6330220;22;20033;-62
2022/10/10 04:51:05;;;;;;;17.15;4.10;;;;;;;;;;6333328;22;20022;-60
2022/10/10 04:53:32;;;;;;;19.77;5.18;;;;;;;;;;6329164;22;20114;-61
2022/10/10 04:56:07;;;;;;;22.92;4.80;;;;;;;;;;6303044;22;20037;-61
2022/10/10 04:58:34;;;;;;;30.48;5.45;;;;;;;;;;6329764;22;20535;-61
2022/10/10 05:01:08;;;;;;;25.48;4.20;;;;;;;;;;6332690;22;20114;-61
2022/10/10 05:03:42;;;;;;;19.08;4.03;;;;;;;;;;6328840;22;20025;-61
2022/10/10 05:06:15;;;;;;;21.83;4.78;;;;;;;;;;6332780;22;20090;-61
2022/10/10 05:08:42;;;;;;;28.75;4.78;;;;;;;;;;6333481;22;20098;-61
2022/10/10 05:11:12;;;;;;;22.08;4.85;;;;;;;;;;6306977;22;20019;-61
2022/10/10 05:13:48;;;;;;;26.70;4.90;;;;;;;;;;6333247;22;20029;-62
2022/10/10 05:16:16;;;;;;;19.00;4.20;;;;;;;;;;6334091;22;20029;-62
2022/10/10 05:18:50;;;;;;;19.83;4.72;;;;;;;;;;6333524;22;20018;-62
2022/10/10 05:21:18;;;;;;;23.75;4.50;;;;;;;;;;6332334;22;20359;-62
2022/10/10 05:23:45;;;;;;;27.58;4.60;;;;;;;;;;6331658;22;20694;-63
2022/10/10 05:26:19;;;;;;;18.65;4.80;;;;;;;;;;6333952;22;20041;-62
2022/10/10 05:28:47;;;;;;;26.38;4.30;;;;;;;;;;6332917;22;20475;-62
2022/10/10 05:31:21;;;;;;;18.65;4.72;;;;;;;;;;6333819;22;20023;-62
2022/10/10 05:33:48;;;;;;;25.55;5.15;;;;;;;;;;6332404;22;20101;-61
2022/10/10 05:36:15;;;;;;;26.90;5.28;;;;;;;;;;6332644;22;20045;-61
2022/10/10 05:38:49;;;;;;;22.40;4.85;;;;;;;;;;6331950;22;20094;-61
2022/10/10 05:41:16;;;;;;;19.02;4.60;;;;;;;;;;6332937;22;20097;-61
2022/10/10 05:43:50;;;;;;;27.02;5.00;;;;;;;;;;6333289;22;20019;-61
2022/10/10 05:46:19;;;;;;;33.08;5.63;;;;;;;;;;6332655;22;20468;-61
2022/10/10 05:48:46;;;;;;;26.58;5.35;;;;;;;;;;6330980;22;20805;-61
2022/10/10 05:51:20;;;;;;;19.00;4.75;;;;;;;;;;6333939;22;20018;-61
2022/10/10 05:53:47;;;;;;;;;;;;;;;;;;6332600;22;20544;-62
2022/10/10 05:56:22;;;;;;;32.40;4.75;;;;;;;;;;6307082;22;19919;-62
2022/10/10 05:58:50;;;;;;;27.73;5.15;;;;;;;;;;6332637;22;20098;-62
2022/10/10 06:01:17;;;;;;;25.60;5.38;;;;;;;;;;6331528;22;20321;-62
2022/10/10 06:03:58;;;;;;;23.05;4.68;;;;;;;;;;6331101;22;20333;-62
2022/10/10 06:06:25;;;;;;;25.65;4.95;;;;;;;;;;6333260;22;20050;-62
2022/10/10 06:08:59;;;;;;;24.92;4.60;;;;;;;;;;6332229;22;20019;-51
2022/10/10 06:11:26;;;;;;;25.95;5.78;;;;;;;;;;6332783;22;20030;-62
2022/10/10 06:13:54;;;;;;;25.77;5.28;;;;;;;;;;6332723;22;20022;-61
2022/10/10 06:16:27;;;;;;;21.52;4.78;;;;;;;;;;6331467;22;20019;-62
2022/10/10 06:18:57;;;;;;;23.95;4.78;;;;;;;;;;6333799;22;20023;-61
2022/10/10 06:21:31;;;;;;;19.75;4.57;;;;;;;;;;6332254;22;20026;-61
2022/10/10 06:24:05;;;;;;;32.03;4.15;;;;;;;;;;6332600;22;20076;-61
2022/10/10 06:26:39;;;;;;;22.48;4.15;;;;;;;;;;6332189;22;20109;-61
2022/10/10 06:29:06;;;;;;;25.73;4.95;;;;;;;;;;6332127;22;20027;-62
2022/10/10 06:31:38;;;;;;;22.73;4.10;;;;;;;;;;6332978;22;20101;-61
2022/10/10 06:34:12;;;;;;;22.17;4.65;;;;;;;;;;6332916;22;20054;-61
2022/10/10 06:36:39;;;;;;;25.15;4.20;;;;;;;;;;6332928;22;20019;-61
2022/10/10 06:39:13;;;;;;;21.10;4.60;;;;;;;;;;6332448;22;20106;-61
2022/10/10 06:41:40;;;;;;;23.30;4.07;;;;;;;;;;6333720;22;20531;-61
2022/10/10 06:44:16;;;;;;;14.38;3.40;;;;;;;;;;6333670;22;20018;-61
2022/10/10 06:46:50;;;;;;;23.40;4.40;;;;;;;;;;6332130;22;20381;-62
2022/10/10 06:49:24;;;;;;;16.15;4.05;;;;;;;;;;6333740;22;20029;-59
2022/10/10 06:51:58;;;;;;;18.10;4.05;;;;;;;;;;6333403;22;20015;-60
2022/10/10 06:54:25;;;;;;;13.52;3.72;;;;;;;;;;6332900;22;20402;-59
2022/10/10 06:56:52;;;;;;;16.83;3.60;;;;;;;;;;6332010;22;20018;-60
2022/10/10 06:59:26;;;;;;;20.13;3.92;;;;;;;;;;6333563;22;20363;-59
2022/10/10 07:01:53;;;;;;;14.52;3.90;;;;;;;;;;6329969;22;20106;-60
2022/10/10 07:04:34;;;;;;;13.07;3.35;;;;;;;;;;6333269;22;20038;-53
2022/10/10 07:07:01;;;;;;;20.75;3.50;;;;;;;;;;6332958;22;20019;-48
2022/10/10 07:09:35;;;;;;;25.98;3.75;;;;;;;;;;6331053;22;20106;-50
2022/10/10 07:12:03;;;;;;;17.80;3.85;;;;;;;;;;6332022;22;20015;-50
2022/10/10 07:14:30;;;;;;;21.20;3.83;;;;;;;;;;6331324;22;20023;-51
2022/10/10 07:17:04;;;;;;;15.82;3.67;;;;;;;;;;6332598;22;20094;-48
2022/10/10 07:19:31;;;;;;;21.05;4.07;;;;;;;;;;6331564;22;20374;-48
2022/10/10 07:22:05;;;;;;;19.00;3.45;;;;;;;;;;6331964;22;20316;-50
2022/10/10 07:24:32;;;;;;;15.52;3.85;;;;;;;;;;6332774;22;20023;-50
2022/10/10 07:27:00;;;;;;;18.35;4.25;;;;;;;;;;6332763;22;20025;-61
2022/10/10 07:29:35;;;;;;;13.90;3.65;;;;;;;;;;6330905;22;20356;-61
2022/10/10 07:32:02;;;;;;;20.13;3.13;;;;;;;;;;6331372;22;20094;-61
2022/10/10 07:34:36;;;;;;;18.95;3.90;;;;;;;;;;6331712;22;20098;-62
2022/10/10 07:37:04;;;;;;;18.52;3.38;;;;;;;;;;6331337;22;20359;-61
2022/10/10 07:39:37;;;;;;;11.00;3.10;;;;;;;;;;6332229;22;20093;-61
2022/10/10 07:42:04;;;;;;;18.60;3.55;;;;;;;;;;6332455;22;20026;-62
2022/10/10 07:44:32;;;;;;;12.10;3.38;;;;;;;;;;6331186;22;20109;-51
2022/10/10 07:47:05;;;;;;;13.95;3.25;;;;;;;;;;6332398;22;20021;-62
2022/10/10 07:49:32;;;;;;;18.70;4.88;;;;;;;;;;6331481;22;20494;-61
2022/10/10 07:52:06;;;;;;;15.68;3.17;;;;;;;;;;6332719;22;20014;-61
2022/10/10 07:54:33;;;;;;;13.70;3.35;;;;;;;;;;6332300;22;20027;-62
2022/10/10 07:57:00;;;;;;;11.60;3.25;;;;;;;;;;6333005;22;20090;-61
2022/10/10 07:59:34;;;;;;;21.52;4.38;;;;;;;;;;6331323;22;20055;-61
2022/10/10 08:02:01;;;;;;;16.52;3.65;;;;;;;;;;6330871;22;20102;-61
2022/10/10 08:10:57;;;;;;;10.93;3.38;;;;;;;;;;6332122;22;19914;-53
2022/10/10 08:13:25;;;;;;;15.30;3.97;;;;;;;;;;6332090;22;20029;-52
2022/10/10 08:15:59;;;;;;;12.82;3.28;;;;;;;;;;6331010;22;20065;-49
2022/10/10 08:18:26;;;;;;;17.00;3.88;;;;;;;;;;6331151;22;20098;-51
2022/10/10 08:21:07;;;;;;;17.40;3.45;;;;;;;;;;6332176;22;20019;-59
2022/10/10 08:23:41;;;;;;;16.77;3.28;;;;;;;;;;6329000;22;20106;-61
2022/10/10 08:26:10;;;;;;;19.58;3.47;;;;;;;;;;6331491;22;20094;-60
2022/10/10 08:28:38;;;;;;;16.70;3.03;;;;;;;;;;6331851;22;20027;-60
2022/10/10 08:31:13;;;;;;;19.83;3.85;;;;;;;;;;6333123;22;20027;-60
2022/10/10 08:33:41;;;;;;;11.65;3.00;;;;;;;;;;6328767;22;20014;-60
2022/10/10 08:36:17;;;;;;;12.75;3.17;;;;;;;;;;6329596;22;20482;-60
2022/10/10 08:38:44;;;;;;;14.48;3.13;;;;;;;;;;6331250;22;20525;-59
2022/10/10 08:41:24;;;;;;;16.08;3.78;;;;;;;;;;6332099;22;20050;-61
2022/10/10 08:44:00;;;;;;;13.85;3.00;;;;;;;;;;6332304;22;20072;-61
2022/10/10 08:46:35;;;;;;;12.38;3.45;;;;;;;;;;6331697;22;20503;-61
2022/10/10 08:49:18;;;;;;;15.98;3.20;;;;;;;;;;6333023;22;20468;-61
2022/10/10 08:51:48;;;;;;;16.42;4.22;;;;;;;;;;6332464;22;20019;-61
2022/10/10 08:54:23;;;;;;;14.48;3.53;;;;;;;;;;6307137;22;20479;-61
2022/10/10 08:56:50;;;;;;;15.13;3.22;;;;;;;;;;6333116;22;20015;-61
2022/10/10 08:59:27;;;;;;;15.95;2.70;;;;;;;;;;6331815;22;20041;-61
2022/10/10 09:01:57;;;;;;;10.27;2.95;;;;;;;;;;6331245;22;20019;-62
2022/10/10 09:04:53;;;;;;;13.98;3.85;;;;;;;;;;6333838;22;20022;-60
2022/10/10 09:07:29;;;;;;;12.38;3.15;;;;;;;;;;6331714;22;20467;-60
2022/10/10 09:10:25;;;;;;;12.27;3.08;;;;;;;;;;6333385;22;20037;-60
2022/10/10 09:13:11;;;;;;;19.48;3.67;;;;;;;;;;6331821;22;20029;-60
2022/10/10 09:15:51;;;;;;;17.73;3.40;;;;;;;;;;6334495;22;20019;-60
2022/10/10 09:18:27;;;;;;;15.40;3.05;;;;;;;;;;6333322;22;20023;-62
2022/10/10 09:21:00;;;;;;;15.77;3.05;;;;;;;;;;6333774;22;20098;-48
2022/10/10 09:23:30;;;;;;;16.80;2.90;;;;;;;;;;6331856;22;20113;-61
2022/10/10 09:26:04;;;;;;;14.93;2.80;;;;;;;;;;6333471;22;20026;-61
2022/10/10 09:28:39;;;;;;;12.07;2.97;;;;;;;;;;6331963;22;20022;-61
2022/10/10 09:31:21;;;;;;;9.20;2.85;;;;;;;;;;6333435;22;20348;-61
2022/10/10 09:34:00;;;;;;;7.90;2.90;;;;;;;;;;6333008;22;20114;-61
2022/10/10 09:36:36;;;;;;;13.32;2.63;;;;;;;;;;6332036;22;20026;-60
2022/10/10 09:39:06;;;;;;;10.18;2.72;;;;;;;;;;6334039;22;20556;-60
2022/10/10 09:41:41;;;;;;;10.35;3.38;;;;;;;;;;6333182;22;20027;-48
2022/10/10 09:44:16;;;;;;;12.90;3.53;;;;;;;;;;6307545;22;20021;-48
2022/10/10 09:46:50;;;;;;;11.50;2.90;;;;;;;;;;6333756;22;20050;-51
2022/10/10 09:49:18;;;;;;;10.75;2.95;;;;;;;;;;6332494;22;20069;-48
2022/10/10 09:51:52;;;;;;;11.55;2.60;;;;;;;;;;6333494;22;20098;-49
2022/10/10 09:54:20;;;;;;;15.23;2.70;;;;;;;;;;6333389;22;20547;-48
2022/10/10 09:56:52;;;;;;;14.10;3.22;;;;;;;;;;6333503;22;20019;-61
2022/10/10 09:59:36;;;;;;;10.77;2.63;;;;;;;;;;6333402;22;20038;-62
2022/10/10 10:02:08;;;;;;;13.45;2.80;;;;;;;;;;6331428;22;20029;-63
2022/10/10 10:04:49;;;;;;;13.88;2.67;;;;;;;;;;6332157;22;20093;-62
2022/10/10 10:07:19;;;;;;;10.05;2.72;;;;;;;;;;6333076;22;20019;-62
2022/10/10 10:09:55;;;;;;;15.90;2.80;;;;;;;;;;6332774;22;20026;-62
2022/10/10 10:12:43;;;;;;;8.98;2.83;;;;;;;;;;6332807;22;20518;-61
2022/10/10 10:15:18;;;;;;;12.93;2.92;;;;;;;;;;6306564;22;20015;-49
2022/10/10 10:18:06;;;;;;;11.45;2.90;;;;;;;;;;6331250;22;20404;-61
2022/10/10 10:20:42;;;;;;;16.77;3.25;;;;;;;;;;6331853;22;20094;-61
2022/10/10 10:23:32;;;;;;;12.73;2.67;;;;;;;;;;6332853;22;20098;-60
2022/10/10 10:26:20;;;;;;;11.38;2.65;;;;;;;;;;6329428;22;20315;-61
2022/10/10 10:28:48;;;;;;;7.70;2.40;;;;;;;;;;6331988;22;20033;-61
2022/10/10 10:31:25;;;;;;;11.27;3.05;;;;;;;;;;6332544;22;20098;-61
2022/10/10 10:34:01;;;;;;;7.70;2.55;;;;;;;;;;6331776;22;20090;-61
2022/10/10 10:36:45;;;;;;;10.98;3.25;;;;;;;;;;6331660;22;20025;-60
2022/10/10 10:39:28;;;;;;;12.90;2.83;;;;;;;;;;6331483;22;20613;-61
2022/10/10 10:42:10;;;;;;;8.40;2.47;;;;;;;;;;6331772;22;20054;-61
2022/10/10 10:44:37;;;;;;;11.20;2.60;;;;;;;;;;6331563;22;20050;-61
2022/10/10 10:47:41;;;;;;;9.20;2.75;;;;;;;;;;6331874;22;20061;-61
2022/10/10 10:50:11;;;;;;;11.25;2.58;;;;;;;;;;6248460;22;20032;-61
2022/10/10 10:52:54;;;;;;;7.35;2.40;;;;;;;;;;6332978;22;20049;-48
2022/10/10 10:55:27;;;;;;;9.93;2.88;;;;;;;;;;6331052;22;20106;-52
2022/10/10 10:58:11;;;;;;;10.77;2.88;;;;;;;;;;6333054;22;20055;-53
2022/10/10 11:01:05;;;;;;;7.20;2.47;;;;;;;;;;6333401;22;20023;-52
2022/10/10 11:04:24;;;;;;;10.48;2.35;;;;;;;;;;6329603;22;20022;-47
2022/10/10 11:07:16;;;;;;;7.50;2.30;;;;;;;;;;6329783;22;20042;-48
2022/10/10 11:10:01;;;;;;;11.13;2.63;;;;;;;;;;6332092;22;20023;-49
2022/10/10 11:13:01;;;;;;;10.15;3.30;;;;;;;;;;6331907;22;20054;-51
2022/10/10 11:15:40;;;;;;;6.80;2.33;;;;;;;;;;6283969;22;20345;-60
2022/10/10 11:18:31;;;;;;;9.13;2.78;;;;;;;;;;6330352;22;20018;-61
2022/10/10 11:21:05;;;;;;;14.23;2.65;;;;;;;;;;6331670;22;20068;-61
2022/10/10 11:23:38;;;;;;;10.20;2.72;;;;;;;;;;6331912;22;20491;-61
2022/10/10 11:26:17;;;;;;;11.07;2.80;;;;;;;;;;6331290;22;20029;-60
2022/10/10 11:28:57;;;;;;;9.85;2.28;;;;;;;;;;6331068;22;20094;-60
2022/10/10 11:31:51;;;;;;;8.02;2.10;;;;;;;;;;6331932;22;20102;-47
2022/10/10 11:34:19;;;;;;;10.90;2.97;;;;;;;;;;6330348;22;20097;-60
2022/10/10 11:36:54;;;;;;;12.68;2.70;;;;;;;;;;6331779;22;20065;-60
2022/10/10 11:39:33;;;;;;;10.32;2.85;;;;;;;;;;6333517;22;20093;-60
2022/10/10 11:42:51;;;;;;;8.48;2.33;;;;;;;;;;6332784;22;20021;-60
2022/10/10 11:45:27;;;;;;;11.50;2.70;;;;;;;;;;6332765;22;20022;-60
2022/10/10 11:48:14;;;;;;;7.80;2.53;;;;;;;;;;6332798;22;20138;-60
2022/10/10 11:50:42;;;;;;;11.15;2.50;;;;;;;;;;6331199;22;20409;-48
2022/10/10 11:53:26;;;;;;;9.63;2.83;;;;;;;;;;6332379;22;20015;-60
2022/10/10 11:56:00;;;;;;;8.27;2.55;;;;;;;;;;6331358;22;20022;-58
2022/10/10 11:58:34;;;;;;;12.48;2.65;;;;;;;;;;6332293;22;20046;-60
2022/10/10 12:01:22;;;;;;;8.65;2.30;;;;;;;;;;6332633;22;20018;-60
2022/10/10 12:04:02;;;;;;;10.20;2.72;;;;;;;;;;6329192;22;20023;-59
2022/10/10 12:06:41;;;;;;;4.75;2.20;;;;;;;;;;6332806;22;20045;-59
2022/10/10 12:09:17;;;;;;;10.80;2.58;;;;;;;;;;6331977;22;20023;-61
2022/10/10 12:11:49;;;;;;;6.40;2.50;;;;;;;;;;6331338;22;20378;-60
2022/10/10 12:14:23;;;;;;;;;;;;;;;;;;6306731;22;20056;-60
2022/10/10 12:16:50;;;;;;;8.82;2.97;;;;;;;;;;6331377;22;19915;-60
2022/10/10 12:19:19;;;;;;;8.88;2.85;;;;;;;;;;6331261;22;20025;-60
2022/10/10 12:22:04;;;;;;;11.75;2.80;;;;;;;;;;6331139;22;20023;-59
2022/10/10 12:24:33;;;;;;;9.25;2.85;;;;;;;;;;6330812;22;20097;-60
2022/10/10 12:27:15;;;;;;;10.32;2.80;;;;;;;;;;6330302;22;20474;-60
2022/10/10 12:29:48;;;;;;;9.15;2.70;;;;;;;;;;6332273;22;20023;-60
2022/10/10 12:32:39;;;;;;;6.50;2.53;;;;;;;;;;6331503;22;20023;-60
2022/10/10 12:35:25;;;;;;;8.43;2.50;;;;;;;;;;6332718;22;20097;-60
2022/10/10 12:38:06;;;;;;;7.65;2.50;;;;;;;;;;6333013;22;20038;-60
2022/10/10 12:40:33;;;;;;;8.65;2.55;;;;;;;;;;6304600;22;20028;-60
2022/10/10 12:43:21;;;;;;;12.98;3.20;;;;;;;;;;6331471;22;20018;-60
2022/10/10 12:46:08;;;;;;;9.55;2.63;;;;;;;;;;6332208;22;20027;-60
2022/10/10 12:48:42;;;;;;;10.18;2.65;;;;;;;;;;6332059;22;20019;-52
2022/10/10 12:51:09;;;;;;;;;;;;;;;;;;6332318;22;20033;-60
2022/10/10 12:53:47;;;;;;;18.40;3.10;;;;;;;;;;6330338;22;19953;-60
2022/10/10 12:56:15;;;;;;;7.43;2.47;;;;;;;;;;6331260;22;20455;-60
2022/10/10 12:58:49;;;;;;;10.73;2.90;;;;;;;;;;6331731;22;20031;-60
2022/10/10 13:01:24;;;;;;;11.93;3.17;;;;;;;;;;6332014;22;20018;-60
2022/10/10 13:04:05;;;;;;;16.65;3.17;;;;;;;;;;6329530;22;20030;-60
2022/10/10 13:06:40;;;;;;;12.65;3.20;;;;;;;;;;6332537;22;20054;-60
2022/10/10 13:09:14;;;;;;;10.32;2.70;;;;;;;;;;6331521;22;20030;-61
2022/10/10 13:11:55;;;;;;;8.40;2.90;;;;;;;;;;6330444;22;20033;-61
2022/10/10 13:14:38;;;;;;;9.05;2.70;;;;;;;;;;6331219;22;20374;-61
2022/10/10 13:17:23;;;;;;;15.98;3.38;;;;;;;;;;6330688;22;20076;-61
2022/10/10 13:20:00;;;;;;;13.00;3.13;;;;;;;;;;6332406;22;20094;-61
2022/10/10 13:22:31;;;;;;;13.27;3.47;;;;;;;;;;6330665;22;20026;-61
2022/10/10 13:25:11;;;;;;;11.73;3.17;;;;;;;;;;6331485;22;20019;-48
2022/10/10 13:27:38;;;;;;;8.93;3.05;;;;;;;;;;6331892;22;20672;-49
2022/10/10 13:30:18;;;;;;;16.70;3.28;;;;;;;;;;6334527;22;20029;-49
2022/10/10 13:32:45;;;;;;;12.90;3.38;;;;;;;;;;6332794;22;20484;-50
2022/10/10 13:35:24;;;;;;;8.40;3.33;;;;;;;;;;6333331;22;20049;-48
2022/10/10 13:37:56;;;;;;;10.02;3.47;;;;;;;;;;6332880;22;20037;-49
2022/10/10 13:40:30;;;;;;;12.40;3.20;;;;;;;;;;6333473;22;20019;-49
2022/10/10 13:42:57;;;;;;;11.15;3.30;;;;;;;;;;6333464;22;20025;-51
2022/10/10 13:45:35;;;;;;;9.40;3.13;;;;;;;;;;6332634;22;20486;-60
2022/10/10 13:48:02;;;;;;;11.90;2.67;;;;;;;;;;6333487;22;20111;-51
2022/10/10 13:50:33;;;;;;;11.05;3.53;;;;;;;;;;6333552;22;20030;-49
2022/10/10 13:53:33;;;;;;;9.05;3.30;;;;;;;;;;6332706;22;20486;-52
2022/10/10 13:56:16;;;;;;;15.85;3.00;;;;;;;;;;6328869;22;20019;-47
2022/10/10 13:59:05;;;;;;;10.40;3.10;;;;;;;;;;6332548;22;20019;-50
2022/10/10 14:56:40;;;;;;;12.25;3.65;;;;;;;;;;6292391;22;20021;-61
2022/10/10 14:59:41;;;;;;;20.25;3.70;;;;;;;;;;6328433;22;20769;-61
2022/10/10 15:02:14;;;;;;;17.83;3.25;;;;;;;;;;6327751;22;20068;-60
2022/10/10 15:04:49;;;;;;;12.18;3.20;;;;;;;;;;6329615;22;20114;-59
2022/10/10 15:07:16;;;;;;;14.60;3.83;;;;;;;;;;6329539;22;20029;-59
2022/10/10 15:09:44;;;;;;;13.77;3.17;;;;;;;;;;6327419;22;20029;-58
2022/10/10 15:12:39;;;;;;;10.55;3.13;;;;;;;;;;6328372;22;20046;-59
2022/10/10 15:15:07;;;;;;;17.13;3.70;;;;;;;;;;6328437;22;20022;-59
2022/10/10 15:17:41;;;;;;;13.40;3.20;;;;;;;;;;6328465;22;20025;-59
2022/10/10 15:20:09;;;;;;;10.95;3.15;;;;;;;;;;6330026;22;20023;-59
2022/10/10 15:22:37;;;;;;;15.70;3.55;;;;;;;;;;6330029;22;20015;-61
2022/10/10 15:25:10;;;;;;;10.95;3.13;;;;;;;;;;6328925;22;20022;-61
2022/10/10 15:27:37;;;;;;;11.93;3.35;;;;;;;;;;6331582;22;20097;-61
2022/10/10 15:30:06;;;;;;;13.65;3.63;;;;;;;;;;6331978;22;20023;-61
2022/10/10 15:32:40;;;;;;;12.23;3.65;;;;;;;;;;6331835;22;20027;-61
2022/10/10 15:35:11;;;;;;;14.80;3.28;;;;;;;;;;6331187;22;20025;-61
2022/10/10 15:37:46;;;;;;;10.45;3.10;;;;;;;;;;6331154;22;20018;-61
2022/10/10 15:40:13;;;;;;;;;;;;;;;;;;6331698;22;20023;-60
2022/10/10 15:42:40;;;;;;;13.43;3.58;;;;;;;;;;6331283;22;19918;-52
2022/10/10 15:45:14;;;;;;;12.65;3.78;;;;;;;;;;6330554;22;20456;-46
2022/10/10 15:48:01;;;;;;;12.98;3.90;;;;;;;;;;6331399;22;20019;-48
2022/10/10 15:50:40;;;;;;;13.50;3.65;;;;;;;;;;6331740;22;20021;-49
2022/10/10 15:53:07;;;;;;;15.43;4.78;;;;;;;;;;6331486;22;20023;-51
2022/10/10 15:55:40;;;;;;;10.25;3.80;;;;;;;;;;6330564;22;20097;-47
2022/10/10 15:58:21;;;;;;;15.07;3.80;;;;;;;;;;6325089;22;20117;-51
2022/10/10 16:00:55;;;;;;;11.27;3.35;;;;;;;;;;6300513;22;20014;-60
2022/10/10 16:03:22;;;;;;;14.43;3.92;;;;;;;;;;6327778;22;20526;-58
2022/10/10 16:05:56;;;;;;;11.38;3.50;;;;;;;;;;6331583;22;20029;-59
2022/10/10 16:08:23;;;;;;;13.75;3.67;;;;;;;;;;6330178;22;20019;-59
2022/10/10 16:10:50;;;;;;;11.55;3.45;;;;;;;;;;6331376;22;20481;-59
2022/10/10 16:13:24;;;;;;;16.20;3.67;;;;;;;;;;6330176;22;20359;-58
2022/10/10 16:16:02;;;;;;;18.08;4.28;;;;;;;;;;6299324;22;20140;-58